Time;durP1;ratioP1;P1;durP2;ratioP2;P2;SDS_P1;SDS_P2;PMS_P1;PMS_P2;Temp;Humidity;BMP_temperature;BMP_pressure;BME280_temperature;BME280_humidity;BME280_pressure;Samples;Min_cycle;Max_cycle;Signal;HPM_P1;HPM_P2
2023/06/18 00:00:15;;;;;;;;;;;;;;;20.37;83.59;101263.63;4987226;28;20024;-73
2023/06/18 00:02:41;;;;;;;;;;;;;;;20.36;84.71;101262.75;4969334;28;20292;-72
2023/06/18 00:05:06;;;;;;;;;;;;;;;20.31;84.75;101256.97;4973642;28;19932;-72
2023/06/18 00:07:31;;;;;;;;;;;;;;;20.31;84.83;101261.59;4973702;28;19922;-72
2023/06/18 00:09:57;;;;;;;;;;;;;;;20.10;89.11;101264.84;4971803;28;19925;-72
2023/06/18 00:12:22;;;;;;;;;;;;;;;19.97;89.63;101265.38;4971123;28;19968;-72
2023/06/18 00:14:48;;;;;;;;;;;;;;;19.91;91.91;101258.75;4972379;28;20780;-72
2023/06/18 00:17:13;;;;;;;;;;;;;;;19.85;91.61;101253.94;4973770;28;20459;-72
2023/06/18 00:19:39;;;;;;;;;;;;;;;19.81;91.18;101258.88;4976894;28;20614;-72
2023/06/18 00:22:05;;;;;;;;;;;;;;;19.78;90.89;101254.63;4975569;28;20434;-72
2023/06/18 00:24:30;;;;;;;;;;;;;;;19.74;91.48;101252.41;4991805;28;19964;-72
2023/06/18 00:26:55;;;;;;;;;;;;;;;19.70;90.77;101248.31;4989478;28;19926;-72
2023/06/18 00:29:21;;;;;;;;;;;;;;;19.64;91.78;101249.84;4973182;28;20314;-72
2023/06/18 00:31:46;;;;;;;;;;;;;;;19.58;92.63;101245.09;4977760;28;19917;-72
2023/06/18 00:34:14;;;;;;;;;;;;;;;19.58;93.76;101250.53;4976767;28;19928;-72
2023/06/18 00:36:43;;;;;;;;;;;;;;;19.53;94.20;101248.31;4977227;28;20407;-72
2023/06/18 00:39:08;;;;;;;;;;;;;;;19.49;94.53;101250.50;4976452;28;19933;-72
2023/06/18 00:41:33;;;;;;;;;;;;;;;19.45;95.89;101251.03;4994892;28;19921;-72
2023/06/18 00:43:59;;;;;;;;;;;;;;;19.37;96.25;101251.88;4978888;28;19928;-72
2023/06/18 00:46:25;;;;;;;;;;;;;;;19.29;97.29;101246.41;4977895;28;19922;-72
2023/06/18 00:48:51;;;;;;;;;;;;;;;19.21;100.00;101251.81;4976981;28;20175;-72
2023/06/18 00:51:16;;;;;;;;;;;;;;;19.10;100.00;101248.41;4990001;28;19929;-72
2023/06/18 00:53:41;;;;;;;;;;;;;;;19.00;100.00;101251.28;4971873;28;19968;-72
2023/06/18 00:56:07;;;;;;;;;;;;;;;18.84;100.00;101249.31;4971050;28;20028;-72
2023/06/18 00:58:33;;;;;;;;;;;;;;;18.70;100.00;101250.78;4965676;28;19977;-72
2023/06/18 01:00:59;;;;;;;;;;;;;;;18.57;100.00;101245.81;4966340;28;19926;-72
2023/06/18 01:03:25;;;;;;;;;;;;;;;18.48;100.00;101240.50;4978518;28;19976;-72
2023/06/18 01:05:52;;;;;;;;;;;;;;;18.39;100.00;101245.03;4981324;28;19975;-72
2023/06/18 01:08:17;;;;;;;;;;;;;;;18.32;100.00;101233.94;4964234;28;20859;-72
2023/06/18 01:10:42;;;;;;;;;;;;;;;18.31;100.00;101232.22;4981624;28;19922;-72
2023/06/18 01:13:09;;;;;;;;;;;;;;;18.31;100.00;101239.53;4965550;28;19932;-72
2023/06/18 01:15:34;;;;;;;;;;;;;;;18.08;100.00;101242.81;4961988;28;19979;-72
2023/06/18 01:17:59;;;;;;;;;;;;;;;17.97;100.00;101239.28;4979299;28;20475;-72
2023/06/18 01:20:25;;;;;;;;;;;;;;;17.92;100.00;101235.34;4968196;28;20429;-72
2023/06/18 01:22:52;;;;;;;;;;;;;;;17.88;100.00;101248.38;4964898;28;20277;-72
2023/06/18 01:25:18;;;;;;;;;;;;;;;17.86;100.00;101238.69;4966220;28;20420;-72
2023/06/18 01:27:43;;;;;;;;;;;;;;;17.83;100.00;101238.00;4965536;28;19926;-72
2023/06/18 01:30:09;;;;;;;;;;;;;;;17.84;100.00;101230.72;4981287;28;19944;-72
2023/06/18 01:32:36;;;;;;;;;;;;;;;17.86;100.00;101233.25;4963716;28;19926;-72
2023/06/18 01:35:02;;;;;;;;;;;;;;;17.88;100.00;101231.25;4976949;28;19973;-72
2023/06/18 01:37:30;;;;;;;;;;;;;;;17.87;100.00;101226.81;4962223;28;19968;-72
2023/06/18 01:40:12;;;;;;;;;;;;;;;17.81;100.00;101229.16;4980073;28;19932;-72
2023/06/18 01:42:37;;;;;;;;;;;;;;;17.69;100.00;101222.28;4961970;28;19925;-72
2023/06/18 01:45:05;;;;;;;;;;;;;;;17.64;100.00;101230.03;4965015;28;19967;-72
2023/06/18 01:47:30;;;;;;;;;;;;;;;17.60;100.00;101226.78;4981849;28;20361;-72
2023/06/18 01:49:55;;;;;;;;;;;;;;;17.51;100.00;101227.72;4971047;28;19926;-72
2023/06/18 01:52:21;;;;;;;;;;;;;;;17.44;100.00;101229.34;4962033;28;20380;-72
2023/06/18 01:54:46;;;;;;;;;;;;;;;17.37;100.00;101220.97;4965664;28;19957;-73
2023/06/18 01:57:12;;;;;;;;;;;;;;;17.32;100.00;101228.72;4967721;28;19925;-72
2023/06/18 01:59:40;;;;;;;;;;;;;;;17.25;100.00;101223.06;4981144;28;19933;-72
2023/06/18 02:02:05;;;;;;;;;;;;;;;17.19;100.00;101223.66;4969060;28;19929;-72
2023/06/18 02:04:30;;;;;;;;;;;;;;;17.09;100.00;101219.16;4968631;28;20533;-72
2023/06/18 02:06:55;;;;;;;;;;;;;;;17.03;100.00;101218.91;4971521;28;20364;-72
2023/06/18 02:09:21;;;;;;;;;;;;;;;16.99;100.00;101223.81;4974032;28;20435;-72
2023/06/18 02:11:46;;;;;;;;;;;;;;;16.94;100.00;101221.53;4983716;28;20439;-72
2023/06/18 02:14:11;;;;;;;;;;;;;;;16.90;100.00;101217.41;4982133;28;19969;-72
2023/06/18 02:16:36;;;;;;;;;;;;;;;16.88;100.00;101210.41;4973624;28;20024;-72
2023/06/18 02:19:02;;;;;;;;;;;;;;;16.85;100.00;101214.28;4980803;28;20326;-72
2023/06/18 02:21:28;;;;;;;;;;;;;;;16.79;100.00;101212.19;4980593;28;20017;-72
2023/06/18 02:23:53;;;;;;;;;;;;;;;16.63;100.00;101211.00;4976443;28;19925;-72
2023/06/18 02:26:19;;;;;;;;;;;;;;;16.52;100.00;101205.75;4978862;28;19929;-72
2023/06/18 02:28:44;;;;;;;;;;;;;;;16.46;100.00;101206.34;4978958;28;19922;-72
2023/06/18 02:31:09;;;;;;;;;;;;;;;16.44;100.00;101205.63;4978808;28;19964;-72
2023/06/18 02:33:35;;;;;;;;;;;;;;;16.39;100.00;101203.38;4979008;28;19944;-72
2023/06/18 02:36:00;;;;;;;;;;;;;;;16.31;100.00;101208.69;4980919;28;19968;-72
2023/06/18 02:38:25;;;;;;;;;;;;;;;16.24;100.00;101204.88;4979147;28;20016;-72
2023/06/18 02:40:50;;;;;;;;;;;;;;;16.24;100.00;101213.84;4981195;28;20014;-72
2023/06/18 02:43:16;;;;;;;;;;;;;;;16.28;100.00;101203.59;4979503;28;19928;-72
2023/06/18 02:45:42;;;;;;;;;;;;;;;16.18;100.00;101206.31;4977586;28;20420;-72
2023/06/18 02:48:07;;;;;;;;;;;;;;;16.12;100.00;101202.34;4983321;28;20356;-72
2023/06/18 02:50:32;;;;;;;;;;;;;;;16.06;100.00;101197.50;4976021;28;19980;-72
2023/06/18 02:52:57;;;;;;;;;;;;;;;16.04;100.00;101194.97;4977679;28;19925;-72
2023/06/18 02:55:23;;;;;;;;;;;;;;;16.09;100.00;101199.09;4992944;28;19941;-72
2023/06/18 02:57:48;;;;;;;;;;;;;;;16.10;100.00;101200.78;4981179;28;19969;-72
2023/06/18 03:00:14;;;;;;;;;;;;;;;16.08;100.00;101203.63;4971437;28;19922;-72
2023/06/18 03:02:40;;;;;;;;;;;;;;;16.03;100.00;101200.50;4994713;28;19929;-72
2023/06/18 03:05:05;;;;;;;;;;;;;;;15.96;100.00;101205.66;4978270;28;19960;-72
2023/06/18 03:07:31;;;;;;;;;;;;;;;15.89;100.00;101202.69;4975756;28;20375;-72
2023/06/18 03:09:56;;;;;;;;;;;;;;;15.91;100.00;101198.97;4977180;28;19924;-73
2023/06/18 03:12:22;;;;;;;;;;;;;;;15.90;100.00;101203.53;4974410;28;19922;-73
2023/06/18 03:14:47;;;;;;;;;;;;;;;15.86;100.00;101194.03;4976140;28;19976;-73
2023/06/18 03:17:12;;;;;;;;;;;;;;;15.77;100.00;101195.69;4969984;28;20463;-72
2023/06/18 03:19:37;;;;;;;;;;;;;;;15.71;100.00;101193.59;4979650;28;19968;-73
2023/06/18 03:22:03;;;;;;;;;;;;;;;15.69;100.00;101199.13;4993034;28;19929;-72
2023/06/18 03:24:28;;;;;;;;;;;;;;;15.73;100.00;101202.41;4972217;28;20098;-73
2023/06/18 03:26:57;;;;;;;;;;;;;;;15.77;100.00;101209.22;4973154;28;20016;-72
2023/06/18 03:29:22;;;;;;;;;;;;;;;15.72;100.00;101201.53;4971335;28;20372;-73
2023/06/18 03:31:47;;;;;;;;;;;;;;;15.68;100.00;101207.41;4969967;28;19932;-73
2023/06/18 03:34:13;;;;;;;;;;;;;;;15.64;100.00;101197.84;4970754;28;19980;-72
2023/06/18 03:36:41;;;;;;;;;;;;;;;15.63;100.00;101198.84;4973331;28;19972;-72
2023/06/18 03:39:06;;;;;;;;;;;;;;;15.66;100.00;101203.97;4985575;28;19922;-73
2023/06/18 03:41:32;;;;;;;;;;;;;;;15.68;100.00;101204.69;4970048;28;19925;-73
2023/06/18 03:43:57;;;;;;;;;;;;;;;15.69;100.00;101203.69;4972799;28;19975;-73
2023/06/18 03:46:22;;;;;;;;;;;;;;;15.69;100.00;101209.09;4973008;28;19944;-73
2023/06/18 03:48:47;;;;;;;;;;;;;;;15.74;100.00;101206.84;4972025;28;19926;-73
2023/06/18 03:51:12;;;;;;;;;;;;;;;15.77;100.00;101203.81;4967473;28;19921;-73
2023/06/18 03:53:38;;;;;;;;;;;;;;;15.87;100.00;101210.09;4971289;28;20039;-73
2023/06/18 03:56:04;;;;;;;;;;;;;;;15.98;100.00;101210.94;4970951;28;20092;-73
2023/06/18 03:58:29;;;;;;;;;;;;;;;16.00;100.00;101217.91;4969395;28;19960;-73
2023/06/18 04:00:54;;;;;;;;;;;;;;;16.02;100.00;101212.38;4966818;28;20372;-73
2023/06/18 04:03:20;;;;;;;;;;;;;;;16.06;100.00;101210.22;4970984;28;20299;-73
2023/06/18 04:05:45;;;;;;;;;;;;;;;16.09;100.00;101209.91;4984888;28;19929;-73
2023/06/18 04:08:10;;;;;;;;;;;;;;;16.16;100.00;101216.44;4969561;28;20048;-73
2023/06/18 04:10:35;;;;;;;;;;;;;;;16.24;100.00;101226.56;4970415;28;19932;-73
2023/06/18 04:13:01;;;;;;;;;;;;;;;16.34;100.00;101230.06;4969361;28;20471;-72
2023/06/18 04:15:26;;;;;;;;;;;;;;;16.40;100.00;101226.78;4986116;28;19921;-73
2023/06/18 04:17:51;;;;;;;;;;;;;;;16.46;100.00;101214.47;4968455;28;19937;-73
2023/06/18 04:20:16;;;;;;;;;;;;;;;16.52;100.00;101219.31;4975996;28;19926;-73
2023/06/18 04:22:41;;;;;;;;;;;;;;;16.66;100.00;101223.38;4973264;28;19918;-73
2023/06/18 04:25:07;;;;;;;;;;;;;;;16.78;100.00;101226.75;4975830;28;20348;-73
2023/06/18 04:27:32;;;;;;;;;;;;;;;16.88;100.00;101224.84;4968742;28;20377;-73
2023/06/18 04:29:58;;;;;;;;;;;;;;;16.99;100.00;101228.38;4976039;28;20315;-73
2023/06/18 04:32:23;;;;;;;;;;;;;;;17.06;100.00;101226.75;4971025;28;19924;-73
2023/06/18 04:34:48;;;;;;;;;;;;;;;17.16;100.00;101223.97;4973406;28;19925;-72
2023/06/18 04:37:13;;;;;;;;;;;;;;;17.24;100.00;101224.91;4977824;28;19921;-73
2023/06/18 04:39:38;;;;;;;;;;;;;;;17.32;100.00;101229.59;4975085;28;20461;-72
2023/06/18 04:42:04;;;;;;;;;;;;;;;17.40;100.00;101231.53;4975226;28;20351;-73
2023/06/18 04:44:30;;;;;;;;;;;;;;;17.47;100.00;101229.91;4976885;28;20320;-72
2023/06/18 04:46:55;;;;;;;;;;;;;;;17.52;100.00;101230.25;4976099;28;20008;-72
2023/06/18 04:49:20;;;;;;;;;;;;;;;17.54;100.00;101233.69;4971970;28;20870;-72
2023/06/18 04:51:45;;;;;;;;;;;;;;;17.57;100.00;101232.53;4986877;28;20320;-73
2023/06/18 04:54:11;;;;;;;;;;;;;;;17.60;100.00;101234.06;4973148;28;19922;-73
2023/06/18 04:56:36;;;;;;;;;;;;;;;17.62;100.00;101230.16;4967102;28;19930;-73
2023/06/18 04:59:02;;;;;;;;;;;;;;;17.63;100.00;101225.63;4965591;28;20608;-73
2023/06/18 05:01:27;;;;;;;;;;;;;;;17.69;100.00;101227.72;4983210;28;20304;-73
2023/06/18 05:03:52;;;;;;;;;;;;;;;17.75;100.00;101229.78;4970001;28;19968;-72
2023/06/18 05:06:18;;;;;;;;;;;;;;;17.75;100.00;101232.50;4964503;28;20319;-73
2023/06/18 05:08:43;;;;;;;;;;;;;;;17.80;100.00;101227.44;4969921;28;19949;-72
2023/06/18 05:11:08;;;;;;;;;;;;;;;17.83;100.00;101215.44;4970608;28;20012;-73
2023/06/18 05:13:33;;;;;;;;;;;;;;;17.87;100.00;101230.41;4967448;28;19928;-73
2023/06/18 05:15:59;;;;;;;;;;;;;;;17.88;100.00;101228.53;4983189;28;20367;-73
2023/06/18 05:18:25;;;;;;;;;;;;;;;17.92;100.00;101230.75;4971032;28;19926;-73
2023/06/18 05:20:50;;;;;;;;;;;;;;;17.98;100.00;101235.59;4972403;28;20332;-73
2023/06/18 05:23:15;;;;;;;;;;;;;;;18.02;100.00;101229.84;4968092;28;19922;-73
2023/06/18 05:25:40;;;;;;;;;;;;;;;18.05;100.00;101227.66;4969823;28;19922;-73
2023/06/18 05:28:06;;;;;;;;;;;;;;;18.11;100.00;101229.75;4968536;28;19921;-73
2023/06/18 05:30:31;;;;;;;;;;;;;;;18.17;100.00;101230.94;4970464;28;19925;-73
2023/06/18 05:32:56;;;;;;;;;;;;;;;18.25;100.00;101230.19;4967445;28;20364;-73
2023/06/18 05:35:21;;;;;;;;;;;;;;;18.40;100.00;101228.56;4968967;28;19925;-72
2023/06/18 05:37:46;;;;;;;;;;;;;;;18.47;100.00;101233.34;4971093;28;19977;-71
2023/06/18 05:40:12;;;;;;;;;;;;;;;18.57;100.00;101232.22;4972855;28;20203;-72
2023/06/18 05:42:39;;;;;;;;;;;;;;;18.71;100.00;101227.16;4967443;28;19928;-71
2023/06/18 05:45:04;;;;;;;;;;;;;;;18.78;100.00;101228.22;4964324;28;19921;-72
2023/06/18 05:47:30;;;;;;;;;;;;;;;18.87;100.00;101229.09;4969832;28;19926;-71
2023/06/18 05:49:55;;;;;;;;;;;;;;;18.96;100.00;101235.44;4970659;28;19972;-72
2023/06/18 05:52:20;;;;;;;;;;;;;;;19.10;100.00;101245.69;4970424;28;19929;-73
2023/06/18 05:54:45;;;;;;;;;;;;;;;19.16;100.00;101255.06;4981507;28;19925;-72
2023/06/18 05:57:11;;;;;;;;;;;;;;;19.23;100.00;101255.22;4966819;28;19925;-72
2023/06/18 05:59:36;;;;;;;;;;;;;;;19.39;100.00;101246.25;4962470;28;20392;-73
2023/06/18 06:02:01;;;;;;;;;;;;;;;19.56;100.00;101245.25;4966000;28;19933;-73
2023/06/18 06:04:27;;;;;;;;;;;;;;;19.72;100.00;101246.28;4966110;28;19921;-73
2023/06/18 06:06:52;;;;;;;;;;;;;;;19.90;100.00;101246.13;4965499;28;20067;-73
2023/06/18 06:09:17;;;;;;;;;;;;;;;19.96;100.00;101245.47;4967891;28;19925;-72
2023/06/18 06:11:42;;;;;;;;;;;;;;;20.05;100.00;101238.13;4967869;28;20048;-72
2023/06/18 06:14:08;;;;;;;;;;;;;;;20.21;100.00;101250.88;4965701;28;20154;-72
2023/06/18 06:16:33;;;;;;;;;;;;;;;20.35;100.00;101244.69;4972881;28;19926;-72
2023/06/18 06:18:58;;;;;;;;;;;;;;;20.51;100.00;101245.69;4974242;28;19925;-72
2023/06/18 06:21:23;;;;;;;;;;;;;;;20.59;100.00;101248.38;4974020;28;19921;-72
2023/06/18 06:23:49;;;;;;;;;;;;;;;20.72;97.06;101246.97;4969442;28;20013;-73
2023/06/18 06:26:14;;;;;;;;;;;;;;;20.75;99.27;101243.91;4976827;28;19926;-73
2023/06/18 06:28:39;;;;;;;;;;;;;;;20.79;96.80;101234.38;4978273;28;19929;-72
2023/06/18 06:31:05;;;;;;;;;;;;;;;20.89;96.48;101239.59;4974479;28;20028;-73
2023/06/18 06:33:30;;;;;;;;;;;;;;;20.91;98.65;101241.09;4977908;28;19922;-73
2023/06/18 06:35:55;;;;;;;;;;;;;;;20.97;95.09;101245.00;4976564;28;20008;-73
2023/06/18 06:38:20;;;;;;;;;;;;;;;21.01;97.30;101242.78;4975805;28;19925;-72
2023/06/18 06:40:46;;;;;;;;;;;;;;;21.14;97.19;101240.28;4976170;28;19928;-73
2023/06/18 06:43:11;;;;;;;;;;;;;;;21.27;88.13;101247.91;4978306;28;19964;-73
2023/06/18 06:45:36;;;;;;;;;;;;;;;21.42;90.13;101250.69;4984805;28;20008;-72
2023/06/18 06:48:01;;;;;;;;;;;;;;;21.56;90.33;101249.94;4972877;28;19926;-73
2023/06/18 06:50:27;;;;;;;;;;;;;;;21.66;87.76;101249.72;4986752;28;20360;-72
2023/06/18 06:52:52;;;;;;;;;;;;;;;21.80;85.85;101252.66;4974443;28;19928;-73
2023/06/18 06:55:17;;;;;;;;;;;;;;;21.90;90.41;101249.66;4979936;28;19922;-72
2023/06/18 06:57:42;;;;;;;;;;;;;;;21.95;89.25;101253.56;4977508;28;19926;-73
2023/06/18 07:00:08;;;;;;;;;;;;;;;22.05;87.45;101256.03;4975577;28;19924;-73
2023/06/18 07:02:33;;;;;;;;;;;;;;;22.16;85.36;101250.09;4973057;28;20455;-73
2023/06/18 07:04:59;;;;;;;;;;;;;;;22.26;78.64;101248.97;4971836;28;20176;-74
2023/06/18 07:07:24;;;;;;;;;;;;;;;22.36;80.97;101254.16;4971544;28;19928;-73
2023/06/18 07:09:49;;;;;;;;;;;;;;;22.43;80.04;101253.25;4987312;28;20127;-72
2023/06/18 07:12:15;;;;;;;;;;;;;;;22.38;75.63;101263.03;4971099;28;19929;-73
2023/06/18 07:14:40;;;;;;;;;;;;;;;22.35;76.84;101252.47;4970447;28;19926;-73
2023/06/18 07:17:05;;;;;;;;;;;;;;;22.40;87.18;101258.25;4970210;28;19973;-73
2023/06/18 07:19:30;;;;;;;;;;;;;;;22.46;83.84;101261.09;4973741;28;20437;-74
2023/06/18 07:21:55;;;;;;;;;;;;;;;22.49;81.68;101257.16;4966209;28;20384;-73
2023/06/18 07:24:21;;;;;;;;;;;;;;;22.42;71.83;101265.22;4991135;28;20411;-73
2023/06/18 07:26:46;;;;;;;;;;;;;;;22.39;74.71;101271.06;4990986;28;20231;-73
2023/06/18 07:29:11;;;;;;;;;;;;;;;22.21;78.63;101290.56;4976678;28;20000;-73
2023/06/18 07:31:36;;;;;;;;;;;;;;;22.24;71.73;101303.88;4976680;28;20087;-75
2023/06/18 07:34:02;;;;;;;;;;;;;;;22.25;68.99;101301.97;4971573;28;20459;-75
2023/06/18 07:36:27;;;;;;;;;;;;;;;22.11;66.10;101285.38;4970855;28;19961;-72
2023/06/18 07:38:52;;;;;;;;;;;;;;;22.11;64.35;101277.16;4968856;28;19921;-73
2023/06/18 07:41:17;;;;;;;;;;;;;;;22.04;66.98;101278.94;4970818;28;20008;-74
2023/06/18 07:43:43;;;;;;;;;;;;;;;22.03;66.85;101274.50;4979227;28;20300;-72
2023/06/18 07:46:08;;;;;;;;;;;;;;;22.13;66.84;101272.34;4973129;28;19926;-73
2023/06/18 07:48:33;;;;;;;;;;;;;;;22.15;67.74;101270.28;4981415;28;19922;-74
2023/06/18 07:50:58;;;;;;;;;;;;;;;22.21;70.56;101282.38;4976758;28;20398;-73
2023/06/18 07:53:24;;;;;;;;;;;;;;;22.20;64.35;101256.06;4977593;28;19968;-73
2023/06/18 07:55:49;;;;;;;;;;;;;;;22.39;64.51;101276.53;4970151;28;19973;-72
2023/06/18 07:58:14;;;;;;;;;;;;;;;22.37;57.89;101285.97;4962009;28;19961;-74
2023/06/18 08:00:39;;;;;;;;;;;;;;;22.25;61.32;101289.13;4990633;28;19922;-74
2023/06/18 08:03:05;;;;;;;;;;;;;;;22.26;57.05;101288.09;4971196;28;19972;-72
2023/06/18 08:05:30;;;;;;;;;;;;;;;22.24;57.52;101278.41;4977481;28;19941;-73
2023/06/18 08:07:55;;;;;;;;;;;;;;;22.24;58.24;101283.88;4973992;28;20009;-73
2023/06/18 08:10:20;;;;;;;;;;;;;;;22.29;59.65;101278.69;4971933;28;20008;-73
2023/06/18 08:12:46;;;;;;;;;;;;;;;22.36;59.55;101279.66;4976655;28;19987;-72
2023/06/18 08:15:11;;;;;;;;;;;;;;;22.39;58.62;101276.53;4978033;28;20279;-74
2023/06/18 08:17:36;;;;;;;;;;;;;;;22.44;58.75;101276.00;4972369;28;19926;-73
2023/06/18 08:20:02;;;;;;;;;;;;;;;22.44;56.21;101276.00;4976000;28;20395;-72
2023/06/18 08:22:28;;;;;;;;;;;;;;;22.50;58.45;101269.78;4989577;28;19925;-73
2023/06/18 08:24:53;;;;;;;;;;;;;;;22.56;56.63;101268.19;4969916;28;19929;-72
2023/06/18 08:27:18;;;;;;;;;;;;;;;22.57;55.02;101270.72;4977269;28;20000;-72
2023/06/18 08:29:43;;;;;;;;;;;;;;;22.63;56.97;101269.13;4978579;28;19921;-73
2023/06/18 08:32:09;;;;;;;;;;;;;;;22.69;59.23;101276.56;4972167;28;20688;-73
2023/06/18 08:34:36;;;;;;;;;;;;;;;22.76;56.26;101269.28;4969035;28;19961;-73
2023/06/18 08:37:02;;;;;;;;;;;;;;;22.98;57.04;101265.78;4968429;28;19941;-74
2023/06/18 08:39:28;;;;;;;;;;;;;;;23.16;54.90;101262.63;4970989;28;19925;-74
2023/06/18 08:41:54;;;;;;;;;;;;;;;23.26;54.22;101256.88;4974622;28;19976;-74
2023/06/18 08:44:21;;;;;;;;;;;;;;;23.51;52.75;101252.72;4984469;28;19969;-74
2023/06/18 08:46:46;;;;;;;;;;;;;;;23.71;52.17;101246.56;4969013;28;19922;-74
2023/06/18 08:49:11;;;;;;;;;;;;;;;23.96;60.42;101252.47;4968356;28;20312;-72
2023/06/18 08:51:37;;;;;;;;;;;;;;;24.17;56.72;101255.38;4972279;28;20698;-72
2023/06/18 08:54:29;;;;;;;;;;;;;;;24.41;56.78;101254.09;4975807;28;19925;-72
2023/06/18 08:56:55;;;;;;;;;;;;;;;24.60;53.48;101262.63;4968324;28;20482;-72
2023/06/18 08:59:20;;;;;;;;;;;;;;;24.70;52.15;101249.38;4970184;28;21365;-73
2023/06/18 09:01:45;;;;;;;;;;;;;;;24.75;53.82;101248.81;4963609;28;20439;-73
2023/06/18 09:04:11;;;;;;;;;;;;;;;24.81;55.08;101250.72;4969096;28;20380;-72
2023/06/18 09:06:36;;;;;;;;;;;;;;;24.83;53.32;101254.13;4969054;28;20406;-73
2023/06/18 09:09:02;;;;;;;;;;;;;;;24.81;55.79;101257.06;4971651;28;20261;-72
2023/06/18 09:11:27;;;;;;;;;;;;;;;24.95;53.22;101255.22;4968230;28;20435;-73
2023/06/18 09:13:52;;;;;;;;;;;;;;;25.03;55.85;101256.94;4983844;28;19921;-72
2023/06/18 09:16:18;;;;;;;;;;;;;;;24.83;51.57;101256.88;4972541;28;19964;-73
2023/06/18 09:18:43;;;;;;;;;;;;;;;24.91;56.44;101250.34;4987916;28;19933;-76
2023/06/18 09:21:08;;;;;;;;;;;;;;;24.84;56.38;101253.91;4968969;28;21606;-72
2023/06/18 09:23:34;;;;;;;;;;;;;;;24.64;57.14;101247.44;4985542;28;19995;-73
2023/06/18 09:25:59;;;;;;;;;;;;;;;24.68;55.86;101249.56;4983191;28;20288;-73
2023/06/18 09:28:25;;;;;;;;;;;;;;;24.60;58.69;101252.50;4979947;28;19988;-73
2023/06/18 09:30:51;;;;;;;;;;;;;;;24.61;55.43;101254.22;4977479;28;19922;-71
2023/06/18 09:33:25;;;;;;;;;;;;;;;24.60;56.40;101246.16;4985499;28;19933;-73
2023/06/18 09:35:57;;;;;;;;;;;;;;;24.47;56.86;101249.69;4973265;28;20448;-73
2023/06/18 09:38:22;;;;;;;;;;;;;;;24.42;56.39;101245.63;4972585;28;19926;-74
2023/06/18 09:40:48;;;;;;;;;;;;;;;24.44;56.99;101247.34;4970320;28;19961;-72
2023/06/18 09:43:13;;;;;;;;;;;;;;;24.27;57.69;101248.50;4968096;28;19929;-72
2023/06/18 09:45:39;;;;;;;;;;;;;;;24.20;58.33;101246.75;4967165;28;19934;-72
2023/06/18 09:48:04;;;;;;;;;;;;;;;24.12;57.84;101250.50;4968330;28;19928;-74
2023/06/18 09:50:30;;;;;;;;;;;;;;;24.33;61.31;101249.59;4966740;28;20435;-73
2023/06/18 09:52:56;;;;;;;;;;;;;;;24.43;57.38;101254.72;4981726;28;20376;-73
2023/06/18 09:55:31;;;;;;;;;;;;;;;24.50;60.55;101252.03;4967319;28;20017;-72
2023/06/18 09:57:57;;;;;;;;;;;;;;;24.28;57.83;101246.63;4970843;28;20447;-73
2023/06/18 10:00:23;;;;;;;;;;;;;;;24.27;61.43;101248.50;4965280;28;19964;-73
2023/06/18 10:02:48;;;;;;;;;;;;;;;24.19;62.14;101256.03;4966903;28;20080;-73
2023/06/18 10:05:14;;;;;;;;;;;;;;;24.20;61.62;101252.25;4970058;28;20202;-72
2023/06/18 10:07:40;;;;;;;;;;;;;;;24.25;63.37;101252.50;4966897;28;19929;-75
2023/06/18 10:10:07;;;;;;;;;;;;;;;24.26;60.19;101254.19;4967028;28;20340;-74
2023/06/18 10:12:32;;;;;;;;;;;;;;;24.41;60.51;101249.44;4962946;28;19921;-74
2023/06/18 10:14:58;;;;;;;;;;;;;;;24.54;63.97;101258.81;4965385;28;19980;-75
2023/06/18 10:17:26;;;;;;;;;;;;;;;24.33;61.72;101248.75;4974271;28;19932;-74
2023/06/18 10:20:01;;;;;;;;;;;;;;;24.33;62.36;101244.13;4970678;28;19922;-74
2023/06/18 10:22:27;;;;;;;;;;;;;;;24.25;62.40;101247.00;4970719;28;19922;-74
2023/06/18 10:25:02;;;;;;;;;;;;;;;24.25;60.64;101255.25;4990430;28;19922;-75
2023/06/18 10:27:28;;;;;;;;;;;;;;;24.08;61.53;101244.59;4973197;28;20161;-74
2023/06/18 10:29:53;;;;;;;;;;;;;;;24.00;62.91;101246.59;4970180;28;20284;-73
2023/06/18 10:32:19;;;;;;;;;;;;;;;23.86;61.37;101245.63;4986411;28;19928;-74
2023/06/18 10:34:44;;;;;;;;;;;;;;;23.82;65.22;101247.91;4993136;28;19922;-74
2023/06/18 10:37:09;;;;;;;;;;;;;;;23.83;66.42;101248.78;4987303;28;19987;-74
2023/06/18 10:39:34;;;;;;;;;;;;;;;23.85;65.61;101246.66;4971260;28;19972;-74
2023/06/18 10:42:13;;;;;;;;;;;;;;;23.83;66.70;101246.88;4976493;28;19921;-75
2023/06/18 10:44:47;;;;;;;;;;;;;;;23.84;70.64;101243.09;4976186;28;20007;-74
2023/06/18 10:47:26;;;;;;;;;;;;;;;23.57;64.96;101233.78;4969306;28;19993;-74
2023/06/18 10:50:03;;;;;;;;;;;;;;;23.62;67.78;101225.81;4989336;28;20043;-72
2023/06/18 10:52:30;;;;;;;;;;;;;;;23.52;68.15;101228.88;4971339;28;19926;-71
2023/06/18 10:54:56;;;;;;;;;;;;;;;23.52;71.99;101234.38;4974563;28;20422;-70
2023/06/18 10:57:25;;;;;;;;;;;;;;;23.59;76.51;101224.31;4966685;28;20363;-70
2023/06/18 10:59:50;;;;;;;;;;;;;;;23.68;77.11;101219.53;4967786;28;19932;-72
2023/06/18 11:02:16;;;;;;;;;;;;;;;23.81;76.16;101224.28;4967308;28;19926;-72
2023/06/18 11:04:41;;;;;;;;;;;;;;;23.84;79.10;101223.91;4981023;28;19925;-72
2023/06/18 11:07:14;;;;;;;;;;;;;;;23.85;78.85;101224.72;4970834;28;19973;-72
2023/06/18 11:09:58;;;;;;;;;;;;;;;24.02;74.45;101214.34;4977153;28;19922;-72
2023/06/18 11:12:24;;;;;;;;;;;;;;;24.16;77.66;101212.53;4971456;28;19964;-72
2023/06/18 11:15:08;;;;;;;;;;;;;;;24.27;84.53;101222.97;4970403;28;19925;-72
2023/06/18 11:17:33;;;;;;;;;;;;;;;24.38;76.93;101208.66;4969973;28;19926;-72
2023/06/18 11:19:59;;;;;;;;;;;;;;;24.45;81.74;101200.50;4970332;28;20365;-73
2023/06/18 11:22:24;;;;;;;;;;;;;;;24.49;75.40;101200.94;4969802;28;19921;-72
2023/06/18 11:24:49;;;;;;;;;;;;;;;24.51;78.61;101196.91;4972473;28;19926;-72
2023/06/18 11:27:15;;;;;;;;;;;;;;;24.54;75.26;101190.19;4973605;28;20349;-72
2023/06/18 11:29:40;;;;;;;;;;;;;;;24.47;85.86;101192.03;4970637;28;20372;-73
2023/06/18 11:32:08;;;;;;;;;;;;;;;24.39;80.76;101191.16;4965632;28;19953;-72
2023/06/18 11:34:39;;;;;;;;;;;;;;;24.36;78.96;101191.59;4968902;28;19922;-72
2023/06/18 11:37:04;;;;;;;;;;;;;;;24.53;77.38;101189.31;4953783;28;20008;-72
2023/06/18 11:39:30;;;;;;;;;;;;;;;24.56;70.01;101179.84;4969453;28;19941;-72
2023/06/18 11:42:10;;;;;;;;;;;;;;;24.57;70.07;101200.75;4989195;28;19965;-73
2023/06/18 11:44:35;;;;;;;;;;;;;;;24.67;72.29;101187.47;4971430;28;20156;-73
2023/06/18 11:47:01;;;;;;;;;;;;;;;24.62;73.70;101197.41;4987345;28;19922;-72
2023/06/18 11:49:26;;;;;;;;;;;;;;;24.60;73.54;101189.38;4974425;28;19925;-70
2023/06/18 11:51:51;;;;;;;;;;;;;;;24.59;73.39;101181.34;4972195;28;19921;-70
2023/06/18 11:54:16;;;;;;;;;;;;;;;24.66;71.85;101180.31;4968118;28;20279;-71
2023/06/18 11:56:45;;;;;;;;;;;;;;;24.74;72.09;101171.09;4976558;28;19921;-72
2023/06/18 11:59:10;;;;;;;;;;;;;;;24.62;71.63;101150.72;4976979;28;19926;-71
2023/06/18 12:01:35;;;;;;;;;;;;;;;24.67;68.45;101162.78;4980674;28;19928;-71
2023/06/18 12:04:03;;;;;;;;;;;;;;;24.70;73.95;101164.28;4984270;28;20138;-71
2023/06/18 12:06:28;;;;;;;;;;;;;;;24.63;71.04;101175.22;4969819;28;19928;-70
2023/06/18 12:08:54;;;;;;;;;;;;;;;24.55;70.74;101175.41;4973056;28;19921;-71
2023/06/18 12:11:28;;;;;;;;;;;;;;;24.52;76.19;101160.19;4972742;28;20012;-70
2023/06/18 12:13:53;;;;;;;;;;;;;;;24.60;71.72;101155.56;4965814;28;19926;-71
2023/06/18 12:16:23;;;;;;;;;;;;;;;24.56;70.81;101166.13;4969917;28;19928;-69
2023/06/18 12:18:49;;;;;;;;;;;;;;;24.59;67.83;101162.13;4966154;28;20368;-70
2023/06/18 12:21:14;;;;;;;;;;;;;;;24.52;70.73;101167.59;4970392;28;20005;-69
2023/06/18 12:23:39;;;;;;;;;;;;;;;24.53;69.55;101167.38;4965266;28;20379;-71
2023/06/18 12:26:04;;;;;;;;;;;;;;;24.55;70.21;101162.53;4969482;28;20383;-69